createdAt,value
2022-12-07T00:01:40.239Z,7.35
2022-12-07T00:04:08.818Z,7.65
2022-12-07T00:06:40.734Z,7.25
2022-12-07T00:09:10.742Z,7.53
2022-12-07T00:11:37.353Z,7.78
2022-12-07T00:14:07.727Z,7.72
2022-12-07T00:16:36.791Z,6.20
2022-12-07T00:21:36.477Z,6.10
2022-12-07T00:24:05.961Z,5.70
2022-12-07T00:26:38.008Z,7.13
2022-12-07T00:29:14.121Z,7.07
2022-12-07T00:31:40.915Z,5.38
2022-12-07T00:34:12.657Z,5.85
2022-12-07T00:36:39.317Z,6.38
2022-12-07T00:39:06.013Z,5.88
2022-12-07T00:41:32.682Z,6.15
2022-12-07T00:43:59.323Z,7.45
2022-12-07T00:46:26.704Z,6.30
2022-12-07T00:48:54.561Z,7.18
2022-12-07T00:51:23.210Z,5.28
2022-12-07T00:53:50.401Z,6.55
2022-12-07T00:56:20.504Z,6.80
2022-12-07T00:58:54.918Z,4.88
2022-12-07T01:01:21.984Z,6.97
2022-12-07T01:03:49.150Z,7.10
2022-12-07T01:06:17.853Z,8.77
2022-12-07T01:08:45.111Z,8.55
2022-12-07T01:11:15.558Z,7.72
2022-12-07T01:13:42.945Z,9.30
2022-12-07T01:16:12.578Z,8.20
2022-12-07T01:18:40.166Z,9.82
2022-12-07T01:21:36.483Z,9.73
2022-12-07T01:24:04.450Z,8.32
2022-12-07T01:26:31.102Z,7.97
2022-12-07T01:29:00.098Z,8.05
2022-12-07T01:31:28.081Z,7.20
2022-12-07T01:33:58.014Z,10.32
2022-12-07T01:36:25.985Z,9.05
2022-12-07T01:38:57.724Z,9.02
2022-12-07T01:41:27.060Z,8.82
2022-12-07T01:44:33.674Z,9.48
2022-12-07T01:47:02.829Z,9.15
2022-12-07T01:52:29.226Z,9.15
2022-12-07T01:55:00.501Z,7.80
2022-12-07T01:57:27.430Z,6.82
2022-12-07T01:59:56.597Z,7.28
2022-12-07T02:05:02.085Z,6.85
2022-12-07T02:09:55.976Z,7.40
2022-12-07T02:12:25.020Z,7.90
2022-12-07T02:14:52.814Z,7.22
2022-12-07T02:17:26.280Z,7.35
2022-12-07T02:20:31.938Z,7.60
2022-12-07T02:23:14.225Z,7.03
2022-12-07T02:26:29.365Z,8.10
2022-12-07T02:29:33.148Z,8.90
2022-12-07T02:32:16.855Z,6.97
2022-12-07T02:34:51.399Z,7.40
2022-12-07T02:37:27.020Z,8.82
2022-12-07T02:40:08.848Z,8.38
2022-12-07T02:42:41.044Z,9.15
2022-12-07T02:45:09.782Z,7.60
2022-12-07T02:47:37.944Z,8.02
2022-12-07T02:50:06.810Z,6.97
2022-12-07T02:52:33.907Z,8.32
2022-12-07T02:55:00.613Z,7.97
2022-12-07T02:57:48.010Z,8.07
2022-12-07T03:00:21.139Z,7.28
2022-12-07T03:02:55.411Z,8.25
2022-12-07T03:05:40.800Z,6.95
2022-12-07T03:08:28.983Z,6.40
2022-12-07T03:11:06.035Z,5.87
2022-12-07T03:13:35.949Z,5.85
2022-12-07T03:16:17.970Z,7.45
2022-12-07T03:18:57.897Z,6.13
2022-12-07T03:21:28.011Z,6.78
2022-12-07T03:24:01.117Z,6.13
2022-12-07T03:26:35.540Z,7.50
2022-12-07T03:29:11.262Z,5.18
2022-12-07T03:31:44.156Z,5.78
2022-12-07T03:34:35.403Z,6.45
2022-12-07T03:41:02.875Z,6.65
2022-12-07T03:43:31.143Z,5.55
2022-12-07T03:46:00.690Z,6.30
2022-12-07T03:48:47.898Z,6.85
2022-12-07T03:51:23.685Z,7.05
2022-12-07T03:53:58.022Z,5.72
2022-12-07T03:56:26.922Z,7.65
2022-12-07T03:58:54.916Z,5.65
2022-12-07T04:01:21.836Z,7.60
2022-12-07T04:03:48.533Z,6.60
2022-12-07T04:06:15.279Z,6.90
2022-12-07T04:08:42.025Z,6.93
2022-12-07T04:11:08.901Z,6.45
2022-12-07T04:13:55.682Z,7.45
2022-12-07T04:16:22.387Z,6.85
2022-12-07T04:18:49.295Z,7.35
2022-12-07T04:21:15.903Z,5.53
2022-12-07T04:23:42.532Z,7.15
2022-12-07T04:26:09.303Z,6.50
2022-12-07T04:28:36.002Z,6.45
2022-12-07T04:31:02.728Z,5.85
2022-12-07T04:33:29.327Z,4.97
2022-12-07T04:35:55.896Z,6.00
2022-12-07T04:38:22.553Z,5.95
2022-12-07T04:40:49.135Z,6.47
2022-12-07T04:43:15.923Z,7.88
2022-12-07T04:45:49.493Z,6.38
2022-12-07T04:48:16.329Z,4.40
2022-12-07T04:50:46.191Z,6.57
2022-12-07T04:53:13.136Z,5.60
2022-12-07T04:55:39.750Z,5.65
2022-12-07T04:58:06.414Z,5.40
2022-12-07T05:00:33.071Z,6.57
2022-12-07T05:02:59.764Z,5.63
2022-12-07T05:05:26.454Z,5.95
2022-12-07T05:07:53.155Z,5.60
2022-12-07T05:10:19.976Z,6.20
2022-12-07T05:12:46.937Z,6.25
2022-12-07T05:15:14.503Z,6.43
2022-12-07T05:17:41.253Z,5.57
2022-12-07T05:20:08.984Z,6.03
2022-12-07T05:22:36.022Z,5.45
2022-12-07T05:25:02.854Z,5.80
2022-12-07T05:27:29.541Z,6.63
2022-12-07T05:29:56.178Z,5.70
2022-12-07T05:32:22.887Z,6.50
2022-12-07T05:34:49.453Z,6.15
2022-12-07T05:37:16.046Z,7.35
2022-12-07T05:39:44.354Z,6.75
2022-12-07T05:42:15.030Z,6.03
2022-12-07T05:44:43.705Z,6.43
2022-12-07T05:47:10.977Z,5.53
2022-12-07T05:49:37.757Z,5.25
2022-12-07T05:52:05.012Z,6.60
2022-12-07T05:54:31.825Z,6.03
2022-12-07T05:56:58.929Z,5.75
2022-12-07T05:59:29.001Z,5.10
2022-12-07T06:01:58.595Z,6.35
2022-12-07T06:04:27.526Z,5.15
2022-12-07T06:06:54.663Z,4.78
2022-12-07T06:09:22.763Z,5.88
2022-12-07T06:12:08.415Z,6.30
2022-12-07T06:14:35.764Z,5.10
2022-12-07T06:17:02.740Z,5.80
2022-12-07T06:19:29.480Z,5.43
2022-12-07T06:21:57.697Z,5.18
2022-12-07T06:24:24.405Z,7.03
2022-12-07T06:26:51.061Z,5.45
2022-12-07T06:29:19.189Z,4.60
2022-12-07T06:31:46.294Z,5.15
2022-12-07T06:34:16.046Z,4.32
2022-12-07T06:36:42.696Z,4.93
2022-12-07T06:39:10.110Z,5.15
2022-12-07T06:41:38.047Z,4.05
2022-12-07T06:44:05.987Z,5.70
2022-12-07T06:49:12.944Z,4.47
2022-12-07T06:51:42.260Z,5.38
2022-12-07T06:54:14.163Z,4.65
2022-12-07T06:56:41.164Z,4.53
2022-12-07T06:59:08.477Z,4.93
2022-12-07T07:01:36.865Z,4.80
2022-12-07T07:04:04.076Z,5.03
2022-12-07T07:06:30.885Z,5.50
2022-12-07T07:08:57.604Z,4.68
2022-12-07T07:11:24.197Z,5.22
2022-12-07T07:13:50.798Z,5.80
2022-12-07T07:16:17.700Z,5.55
2022-12-07T07:18:44.537Z,4.97
2022-12-07T07:21:11.196Z,6.38
2022-12-07T07:23:37.844Z,5.75
2022-12-07T07:26:04.571Z,5.15
2022-12-07T07:28:31.404Z,5.55
2022-12-07T07:30:58.139Z,6.90
2022-12-07T07:33:24.959Z,8.70
2022-12-07T07:35:51.609Z,8.05
2022-12-07T07:38:18.264Z,7.53
2022-12-07T07:40:45.128Z,4.75
2022-12-07T07:43:11.908Z,10.05
2022-12-07T07:45:39.093Z,5.22
2022-12-07T07:48:06.017Z,4.10
2022-12-07T07:50:32.682Z,4.80
